Portada
METAR-TAF:

METAR-TAF

Aeroports :

Curaçao, Antilles Neerlandeses

latitud: 12-12N, longitud: 068-58W, altitud: 9 m

Observació

L'informe es va fer fa 11 minuts, a les 15:00 UTC
Vent 13 kt del Est
Temperatura 31°C
Humitat 66%
Pressió 1016 hPa
Visibilitat 10 km o més

METAR: TNCC 171500Z AUTO 09013KT 9999 NCD 31/24 Q1016 NOSIG

Hora: 11:11 (15:11 UTC)

Pronòstic

L'informe es va fer fa 5 hores i 11 minuts, a les 10:00 UTC
Pronòstic vàlid del 17 a les 12 UTC al 18 a les 12 UTC
Vent 13 kt del Est/Sud-Est
Visibilitat 10 km o més
Núvols disperses a una alçada de 2000 ft

TAF: TNCC 171000Z 1712/1812 11013KT 9999 SCT020

Observacions i pronòstics meteorològics de més de 4000 aeroports (METAR i TAF).

Les estacions disponibles són els punts grocs i vermells al mapa.

Posi el ratolí al punt desitjat per veure el nom de l'estació.

Feu clic per veure les observacions i els pronòstics meteorològics.

Per canviar el mapa: feu clic els botons verds amb una creu de color negre per apropar; al botó verd amb un guió per allunyar la imatge; o en les fletxes verdes per a mapes adjacents.


METAR-TAF: